createdAt,value
2022-09-01T00:00:13.490Z,79.77
2022-09-01T00:02:40.898Z,79.44
2022-09-01T00:05:08.202Z,79.77
2022-09-01T00:07:35.860Z,79.14
2022-09-01T00:10:07.398Z,78.72
2022-09-01T00:12:34.679Z,78.41
2022-09-01T00:15:01.834Z,79.32
2022-09-01T00:17:29.151Z,79.33
2022-09-01T00:19:55.992Z,78.87
2022-09-01T00:22:22.958Z,79.37
2022-09-01T00:24:49.828Z,78.93
2022-09-01T00:27:17.190Z,78.07
2022-09-01T00:29:44.865Z,77.52
2022-09-01T00:32:12.483Z,77.14
2022-09-01T00:34:42.096Z,77.02
2022-09-01T00:37:09.000Z,77.32
2022-09-01T00:39:35.861Z,77.77
2022-09-01T00:42:02.941Z,77.66
2022-09-01T00:44:31.286Z,78.37
2022-09-01T00:46:59.886Z,78.73
2022-09-01T00:49:35.374Z,78.69
2022-09-01T00:52:07.627Z,78.80
2022-09-01T00:54:40.049Z,77.51
2022-09-01T00:57:09.436Z,77.00
2022-09-01T00:59:39.520Z,77.36
2022-09-01T01:02:06.478Z,78.07
2022-09-01T01:04:33.311Z,78.34
2022-09-01T01:07:04.090Z,78.02
2022-09-01T01:09:34.658Z,77.67
2022-09-01T01:12:03.309Z,77.29
2022-09-01T01:14:32.001Z,78.10
2022-09-01T01:17:00.449Z,80.06
2022-09-01T01:19:58.839Z,80.63
2022-09-01T01:22:54.289Z,80.68
2022-09-01T01:25:22.540Z,79.06
2022-09-01T01:27:50.584Z,78.30
2022-09-01T01:30:19.107Z,77.29
2022-09-01T01:32:47.749Z,77.58
2022-09-01T01:35:16.898Z,76.78
2022-09-01T01:37:45.888Z,77.34
2022-09-01T01:40:17.043Z,77.03
2022-09-01T01:42:49.695Z,78.77
2022-09-01T01:45:20.352Z,78.20
2022-09-01T01:47:56.604Z,78.51
2022-09-01T01:50:33.540Z,79.34
2022-09-01T01:53:02.952Z,78.33
2022-09-01T01:55:38.218Z,77.52
2022-09-01T01:58:05.377Z,78.77
2022-09-01T02:00:35.152Z,79.15
2022-09-01T02:03:03.326Z,79.32
2022-09-01T02:05:33.196Z,79.34
2022-09-01T02:08:04.753Z,79.04
2022-09-01T02:10:44.827Z,79.83
2022-09-01T02:13:16.557Z,80.12
2022-09-01T02:15:49.520Z,80.34
2022-09-01T02:18:19.881Z,80.03
2022-09-01T02:20:49.531Z,79.77
2022-09-01T02:23:20.236Z,79.76
2022-09-01T02:26:14.087Z,80.51
2022-09-01T02:28:37.141Z,80.17
2022-09-01T02:31:05.336Z,80.33
2022-09-01T02:33:32.713Z,80.42
2022-09-01T02:36:02.248Z,78.89
2022-09-01T02:38:29.878Z,76.25
2022-09-01T02:41:01.780Z,76.59
2022-09-01T02:43:29.952Z,77.61
2022-09-01T02:46:07.559Z,80.74
2022-09-01T02:48:40.402Z,82.59
2022-09-01T02:51:10.506Z,81.33
2022-09-01T02:53:39.545Z,81.10
2022-09-01T02:56:14.492Z,82.64
2022-09-01T02:58:46.346Z,83.44
2022-09-01T03:01:22.178Z,84.49
2022-09-01T03:03:51.027Z,83.95
2022-09-01T03:06:19.915Z,85.18
2022-09-01T03:08:48.205Z,84.90
2022-09-01T03:11:15.329Z,83.63
2022-09-01T03:13:43.232Z,82.23
2022-09-01T03:16:11.095Z,82.57
2022-09-01T03:18:39.725Z,83.26
2022-09-01T03:21:08.471Z,83.81
2022-09-01T03:23:37.105Z,83.96
2022-09-01T03:26:04.418Z,83.27
2022-09-01T03:28:32.019Z,83.28
2022-09-01T03:30:59.943Z,83.48
2022-09-01T03:33:28.496Z,82.78
2022-09-01T03:35:57.123Z,80.62
2022-09-01T03:38:24.862Z,80.60
2022-09-01T03:41:02.034Z,80.95
2022-09-01T03:43:36.056Z,80.70
2022-09-01T03:46:03.957Z,80.59
2022-09-01T03:48:32.554Z,80.64
2022-09-01T03:51:03.296Z,80.17
2022-09-01T03:53:37.065Z,82.48
2022-09-01T03:56:06.169Z,82.01
2022-09-01T03:58:33.763Z,81.35
2022-09-01T04:01:03.061Z,80.64
2022-09-01T04:03:33.012Z,79.82
2022-09-01T04:06:02.307Z,81.33
2022-09-01T04:08:32.813Z,80.25
2022-09-01T04:11:05.330Z,79.74
2022-09-01T04:13:37.399Z,80.57
2022-09-01T04:16:10.907Z,79.89
2022-09-01T04:18:40.214Z,79.25
2022-09-01T04:21:08.247Z,81.07
2022-09-01T04:23:37.225Z,81.02
2022-09-01T04:26:14.695Z,81.22
2022-09-01T04:28:47.416Z,79.47
2022-09-01T04:31:18.717Z,78.42
2022-09-01T04:33:50.133Z,80.09
2022-09-01T04:36:23.601Z,80.51
2022-09-01T04:38:56.533Z,80.50
2022-09-01T04:41:31.977Z,80.11
2022-09-01T04:44:04.832Z,80.61
2022-09-01T04:46:40.882Z,81.36
2022-09-01T04:49:13.214Z,83.05
2022-09-01T04:51:41.842Z,83.92
2022-09-01T04:54:14.556Z,85.06
2022-09-01T04:56:49.612Z,84.90
2022-09-01T04:59:20.427Z,84.35
2022-09-01T05:01:54.927Z,85.09
2022-09-01T05:04:27.546Z,84.25
2022-09-01T05:07:01.212Z,83.26
2022-09-01T05:09:37.941Z,81.40
2022-09-01T05:12:27.679Z,81.71
2022-09-01T05:14:56.067Z,81.10
2022-09-01T05:17:23.393Z,83.11
2022-09-01T05:19:51.045Z,82.56
2022-09-01T05:22:22.379Z,83.43
2022-09-01T05:25:13.529Z,81.63
2022-09-01T05:27:49.834Z,80.06
2022-09-01T05:30:19.513Z,79.58
2022-09-01T05:32:49.157Z,79.47
2022-09-01T05:35:17.636Z,80.11
2022-09-01T05:37:44.941Z,80.53
2022-09-01T05:40:16.353Z,81.10
2022-09-01T05:42:45.803Z,80.19
2022-09-01T05:45:14.306Z,80.18
2022-09-01T05:47:42.161Z,79.50
2022-09-01T05:50:14.252Z,79.48
2022-09-01T05:52:44.568Z,78.90
2022-09-01T05:55:11.802Z,79.33
2022-09-01T05:57:42.084Z,80.68
2022-09-01T06:00:14.467Z,81.74
2022-09-01T06:02:42.936Z,81.98
2022-09-01T06:05:15.930Z,81.58
2022-09-01T06:07:44.402Z,81.02
2022-09-01T06:10:14.724Z,79.06
2022-09-01T06:12:43.264Z,78.44
2022-09-01T06:15:16.274Z,79.70
2022-09-01T06:17:49.089Z,79.18
2022-09-01T06:20:18.942Z,80.50
2022-09-01T06:22:47.613Z,81.33
2022-09-01T06:25:18.643Z,81.45
2022-09-01T06:27:48.336Z,80.15
2022-09-01T06:30:24.448Z,79.30
2022-09-01T06:32:57.978Z,79.67
2022-09-01T06:35:29.558Z,80.07
2022-09-01T06:37:58.496Z,79.81
2022-09-01T06:40:41.594Z,80.68
2022-09-01T06:43:12.162Z,79.80
2022-09-01T06:45:49.850Z,79.41
2022-09-01T06:48:18.484Z,79.64
2022-09-01T06:53:35.734Z,79.05
2022-09-01T06:56:06.252Z,79.99
2022-09-01T06:58:35.060Z,78.75
2022-09-01T07:01:14.642Z,78.25
2022-09-01T07:03:43.847Z,77.83
2022-09-01T07:09:22.150Z,78.03
2022-09-01T07:12:25.903Z,78.36
2022-09-01T07:17:50.117Z,77.33
2022-09-01T07:20:23.897Z,77.81
2022-09-01T07:23:08.145Z,77.76
2022-09-01T07:26:01.347Z,77.31
2022-09-01T07:28:37.046Z,76.75
2022-09-01T07:33:55.696Z,76.31
2022-09-01T07:46:36.602Z,74.92
2022-09-01T07:49:02.695Z,76.03
2022-09-01T07:51:42.126Z,75.07
2022-09-01T07:54:09.264Z,74.68
2022-09-01T07:59:27.978Z,74.46
2022-09-01T08:02:12.309Z,74.33
2022-09-01T08:04:41.267Z,74.58
2022-09-01T08:07:15.354Z,75.43
2022-09-01T08:09:44.639Z,74.63
2022-09-01T08:12:12.999Z,74.50
2022-09-01T08:14:46.748Z,74.61
2022-09-01T08:17:18.130Z,75.09
2022-09-01T08:20:08.568Z,73.64
2022-09-01T08:22:55.363Z,73.96
2022-09-01T08:25:33.708Z,74.34
2022-09-01T08:28:02.014Z,73.59
2022-09-01T08:30:30.125Z,73.72
2022-09-01T08:32:58.069Z,72.73
2022-09-01T08:35:24.964Z,73.39
2022-09-01T08:37:54.171Z,73.46
2022-09-01T08:40:23.662Z,72.67
2022-09-01T08:43:20.303Z,73.15
2022-09-01T08:45:56.038Z,72.19
2022-09-01T08:49:24.087Z,71.84
2022-09-01T08:51:50.070Z,71.75
2022-09-01T08:54:29.989Z,72.47
2022-09-01T08:57:14.680Z,71.89
2022-09-01T09:00:20.138Z,73.19
2022-09-01T09:03:07.739Z,73.03
2022-09-01T09:06:12.924Z,73.47
2022-09-01T09:08:58.559Z,73.04
2022-09-01T09:11:34.449Z,73.00
2022-09-01T09:14:07.279Z,72.14
2022-09-01T09:17:04.444Z,71.81
2022-09-01T09:19:32.235Z,72.10
2022-09-01T09:22:02.461Z,72.08
2022-09-01T09:24:48.503Z,72.14
2022-09-01T09:27:26.878Z,72.05
2022-09-01T09:30:09.206Z,72.24
2022-09-01T09:35:50.902Z,70.99
2022-09-01T09:38:24.380Z,70.74
2022-09-01T09:41:16.475Z,70.57
2022-09-01T09:44:03.332Z,71.71
2022-09-01T09:46:43.668Z,71.41
2022-09-01T09:49:36.373Z,70.88
2022-09-01T09:52:10.653Z,70.01
2022-09-01T09:55:05.173Z,68.92
2022-09-01T09:57:32.872Z,69.01
2022-09-01T10:00:08.980Z,67.17
2022-09-01T10:02:44.080Z,66.93
2022-09-01T10:05:40.364Z,67.18
2022-09-01T10:08:11.731Z,66.41
2022-09-01T10:10:57.269Z,66.14
2022-09-01T10:13:25.945Z,65.28
2022-09-01T10:15:57.226Z,65.19
2022-09-01T10:18:30.315Z,65.39
2022-09-01T10:21:15.992Z,65.15
2022-09-01T10:23:43.451Z,65.55
2022-09-01T10:26:19.149Z,64.81
2022-09-01T10:29:22.613Z,64.62
2022-09-01T10:31:49.455Z,64.13
2022-09-01T10:34:19.438Z,63.90
2022-09-01T10:36:55.860Z,64.35
2022-09-01T10:39:27.709Z,63.98
2022-09-01T10:42:08.313Z,63.41
2022-09-01T10:44:58.350Z,62.47
2022-09-01T10:47:30.166Z,63.08
2022-09-01T10:50:00.128Z,61.03
2022-09-01T10:52:44.001Z,60.96
2022-09-01T10:55:26.417Z,60.60
2022-09-01T11:01:41.110Z,59.66
2022-09-01T11:03:54.331Z,57.58
2022-09-01T11:07:11.554Z,57.35
2022-09-01T11:09:38.463Z,57.18
2022-09-01T11:12:28.815Z,55.04
2022-09-01T11:15:35.494Z,55.20
2022-09-01T11:18:03.634Z,55.93
2022-09-01T11:20:36.871Z,54.28
2022-09-01T11:23:14.775Z,54.21
2022-09-01T11:26:19.075Z,53.32
2022-09-01T11:28:38.764Z,53.48
2022-09-01T11:31:06.479Z,52.92
2022-09-01T11:33:52.257Z,51.24
2022-09-01T11:36:30.892Z,51.18
2022-09-01T11:39:08.744Z,50.82
2022-09-01T11:41:58.550Z,51.94
2022-09-01T11:44:54.017Z,49.86
2022-09-01T11:47:27.978Z,49.59
2022-09-01T11:50:01.057Z,49.34
2022-09-01T11:52:34.321Z,50.79
2022-09-01T11:55:01.596Z,52.36
2022-09-01T11:57:37.043Z,53.27
2022-09-01T12:00:11.139Z,51.24
2022-09-01T12:02:51.385Z,51.77
2022-09-01T12:05:31.462Z,52.01
2022-09-01T12:07:59.637Z,51.97
2022-09-01T12:10:33.696Z,50.96
2022-09-01T12:13:19.536Z,49.55
2022-09-01T12:16:17.459Z,47.92
2022-09-01T12:18:48.251Z,49.23
2022-09-01T12:21:34.803Z,49.16
2022-09-01T12:24:15.473Z,48.60
2022-09-01T12:26:43.296Z,48.30
2022-09-01T12:29:11.428Z,46.28
2022-09-01T12:31:41.387Z,48.10
2022-09-01T12:34:24.962Z,47.27
2022-09-01T12:37:08.355Z,46.95
2022-09-01T12:39:48.009Z,45.63
2022-09-01T12:42:27.535Z,47.30
2022-09-01T12:44:57.471Z,48.42
2022-09-01T12:47:36.337Z,44.54
2022-09-01T12:50:05.820Z,47.07
2022-09-01T12:52:40.152Z,46.42
2022-09-01T12:55:07.101Z,46.55
2022-09-01T12:57:36.753Z,47.18
2022-09-01T13:00:19.917Z,46.51
2022-09-01T13:02:53.329Z,45.94
2022-09-01T13:05:41.712Z,47.12
2022-09-01T13:08:13.938Z,46.90
2022-09-01T13:10:49.735Z,44.72
2022-09-01T13:13:17.524Z,42.25
2022-09-01T13:15:50.381Z,41.65
2022-09-01T13:18:19.269Z,42.86
2022-09-01T13:20:46.339Z,41.52
2022-09-01T13:23:13.361Z,40.40
2022-09-01T13:25:41.608Z,39.89
2022-09-01T13:28:08.958Z,41.05
2022-09-01T13:30:35.833Z,43.70
2022-09-01T13:33:19.215Z,46.70
2022-09-01T13:35:46.635Z,46.80
2022-09-01T13:38:16.294Z,47.14
2022-09-01T13:40:45.567Z,45.42
2022-09-01T13:43:14.112Z,45.93
2022-09-01T13:45:42.300Z,44.08
2022-09-01T13:48:16.625Z,43.40
2022-09-01T13:53:32.671Z,42.31
2022-09-01T13:55:59.502Z,42.13
2022-09-01T13:58:26.323Z,43.53
2022-09-01T14:00:53.227Z,44.03
2022-09-01T14:03:22.662Z,45.88
2022-09-01T14:05:49.849Z,43.87
2022-09-01T14:08:19.745Z,44.64
2022-09-01T14:10:51.045Z,42.74
2022-09-01T14:13:20.253Z,41.76
2022-09-01T14:15:48.346Z,41.74
2022-09-01T14:18:16.313Z,41.98
2022-09-01T14:20:46.039Z,41.17
2022-09-01T14:23:15.038Z,39.67
2022-09-01T14:25:44.966Z,40.02
2022-09-01T14:28:13.266Z,39.79
2022-09-01T14:30:42.836Z,39.50
2022-09-01T14:33:10.952Z,39.24
2022-09-01T14:35:42.980Z,38.87
2022-09-01T14:38:10.383Z,37.67
2022-09-01T14:40:38.786Z,38.13
2022-09-01T14:43:09.898Z,38.58
2022-09-01T14:45:37.816Z,38.46
2022-09-01T14:48:05.574Z,37.89
2022-09-01T14:50:34.156Z,37.39
2022-09-01T14:53:02.759Z,38.57
2022-09-01T14:55:30.637Z,38.31
2022-09-01T14:57:57.696Z,38.61
2022-09-01T15:00:27.951Z,37.37
2022-09-01T15:02:55.627Z,36.79
2022-09-01T15:05:23.249Z,36.88
2022-09-01T15:07:50.936Z,37.53
2022-09-01T15:10:25.359Z,36.01
2022-09-01T15:12:57.286Z,36.75
2022-09-01T15:15:25.485Z,35.66
2022-09-01T15:17:52.717Z,35.09
2022-09-01T15:20:38.099Z,34.88
2022-09-01T15:23:05.503Z,34.38
2022-09-01T15:25:32.490Z,35.00
2022-09-01T15:28:00.329Z,34.50
2022-09-01T15:30:28.126Z,34.42
2022-09-01T15:32:55.388Z,34.41
2022-09-01T15:35:23.068Z,33.88
2022-09-01T15:37:51.571Z,34.15
2022-09-01T15:40:19.587Z,33.60
2022-09-01T15:42:46.744Z,33.41
2022-09-01T15:45:19.684Z,33.63
2022-09-01T15:47:48.400Z,33.55
2022-09-01T15:50:21.398Z,34.26
2022-09-01T15:52:55.873Z,33.21
2022-09-01T15:55:28.602Z,33.43
2022-09-01T15:57:55.937Z,33.08
2022-09-01T16:00:25.497Z,33.33
2022-09-01T16:02:54.529Z,32.88
2022-09-01T16:05:21.554Z,32.38
2022-09-01T16:07:50.227Z,32.40
2022-09-01T16:10:17.089Z,32.94
2022-09-01T16:12:44.776Z,32.96
2022-09-01T16:15:15.695Z,34.05
2022-09-01T16:18:21.390Z,32.59
2022-09-01T16:21:10.088Z,32.85
2022-09-01T16:23:44.050Z,32.67
2022-09-01T16:26:12.165Z,32.96
2022-09-01T16:28:39.640Z,33.44
2022-09-01T16:31:21.190Z,34.08
2022-09-01T16:33:51.568Z,33.37
2022-09-01T16:36:34.767Z,33.40
2022-09-01T16:39:11.531Z,34.85
2022-09-01T16:42:04.111Z,33.58
2022-09-01T16:45:17.241Z,34.76
2022-09-01T16:47:49.123Z,34.04
2022-09-01T16:50:38.707Z,34.50
2022-09-01T16:53:30.682Z,33.96
2022-09-01T16:56:09.279Z,35.74
2022-09-01T16:58:54.538Z,35.36
2022-09-01T17:02:11.217Z,34.35
2022-09-01T17:04:48.017Z,36.80
2022-09-01T17:07:14.935Z,38.95
2022-09-01T17:09:49.852Z,42.26
2022-09-01T17:12:33.300Z,44.82
2022-09-01T17:15:31.677Z,47.38
2022-09-01T17:18:21.989Z,47.71
2022-09-01T17:21:02.337Z,49.45
2022-09-01T17:23:35.633Z,50.48
2022-09-01T17:26:15.001Z,51.21
2022-09-01T17:29:11.999Z,51.17
2022-09-01T17:32:30.978Z,52.27
2022-09-01T17:35:23.630Z,53.05
2022-09-01T17:38:09.017Z,54.00
2022-09-01T17:40:50.766Z,53.10
2022-09-01T17:43:29.419Z,56.33
2022-09-01T17:46:13.530Z,56.30
2022-09-01T17:48:43.311Z,57.23
2022-09-01T17:51:26.022Z,58.61
2022-09-01T17:54:17.321Z,59.56
2022-09-01T17:56:49.980Z,59.61
2022-09-01T17:59:54.647Z,60.52
2022-09-01T18:02:24.753Z,59.76
2022-09-01T18:04:55.995Z,60.83
2022-09-01T18:07:41.374Z,61.10
2022-09-01T18:10:14.077Z,60.99
2022-09-01T18:12:43.263Z,60.63
2022-09-01T18:15:29.352Z,61.91
2022-09-01T18:18:14.564Z,64.13
2022-09-01T18:20:46.466Z,63.39
2022-09-01T18:23:19.380Z,64.10
2022-09-01T18:25:49.936Z,63.07
2022-09-01T18:28:17.131Z,65.31
2022-09-01T18:30:59.323Z,65.51
2022-09-01T18:33:29.815Z,66.47
2022-09-01T18:36:03.924Z,64.95
2022-09-01T18:38:43.441Z,65.74
2022-09-01T18:41:28.699Z,65.43
2022-09-01T18:44:14.317Z,65.98
2022-09-01T18:46:54.975Z,66.71
2022-09-01T18:49:29.129Z,67.74
2022-09-01T18:52:31.214Z,67.17
2022-09-01T18:55:19.822Z,67.47
2022-09-01T18:57:52.574Z,67.04
2022-09-01T19:00:21.390Z,66.92
2022-09-01T19:02:53.580Z,67.08
2022-09-01T19:05:29.031Z,69.53
2022-09-01T19:08:08.372Z,68.52
2022-09-01T19:10:52.833Z,69.09
2022-09-01T19:13:44.853Z,70.58
2022-09-01T19:16:32.447Z,69.25
2022-09-01T19:19:17.279Z,68.77
2022-09-01T19:21:44.750Z,69.14
2022-09-01T19:24:26.607Z,69.75
2022-09-01T19:27:21.919Z,70.56
2022-09-01T19:29:53.657Z,71.36
2022-09-01T19:32:23.003Z,69.60
2022-09-01T19:34:59.988Z,69.49
2022-09-01T19:37:26.866Z,70.51
2022-09-01T19:39:54.620Z,72.34
2022-09-01T19:43:11.452Z,71.49
2022-09-01T19:45:47.275Z,71.23
2022-09-01T19:48:25.213Z,71.49
2022-09-01T19:50:59.277Z,72.13
2022-09-01T19:53:45.504Z,72.30
2022-09-01T19:56:35.499Z,71.73
2022-09-01T19:59:27.681Z,72.45
2022-09-01T20:02:04.535Z,74.09
2022-09-01T20:04:41.289Z,74.16
2022-09-01T20:07:51.185Z,72.78
2022-09-01T20:10:37.952Z,74.02
2022-09-01T20:13:10.782Z,72.92
2022-09-01T20:15:55.116Z,74.33
2022-09-01T20:18:31.121Z,72.88
2022-09-01T20:21:04.850Z,72.20
2022-09-01T20:24:00.171Z,72.66
2022-09-01T20:26:32.820Z,74.34
2022-09-01T20:29:09.132Z,74.60
2022-09-01T20:31:48.967Z,75.23
2022-09-01T20:34:15.756Z,75.47
2022-09-01T20:36:49.749Z,75.62
2022-09-01T20:39:40.014Z,75.49
2022-09-01T20:42:13.368Z,75.70
2022-09-01T20:44:45.140Z,74.75
2022-09-01T20:47:12.546Z,74.57
2022-09-01T20:49:40.310Z,75.55
2022-09-01T20:52:13.012Z,75.85
2022-09-01T20:55:12.076Z,73.54
2022-09-01T20:57:54.387Z,73.98
2022-09-01T21:00:25.948Z,73.59
2022-09-01T21:03:19.247Z,75.13
2022-09-01T21:06:15.697Z,75.82
2022-09-01T21:09:20.814Z,75.59
2022-09-01T21:12:02.551Z,77.45
2022-09-01T21:14:48.557Z,76.24
2022-09-01T21:17:33.981Z,75.77
2022-09-01T21:20:22.169Z,76.94
2022-09-01T21:22:50.355Z,77.85
2022-09-01T21:25:17.403Z,76.86
2022-09-01T21:27:52.118Z,77.33
2022-09-01T21:30:19.818Z,77.29
2022-09-01T21:32:47.089Z,76.56
2022-09-01T21:35:17.149Z,76.54
2022-09-01T21:37:44.094Z,76.76
2022-09-01T21:40:12.144Z,76.21
2022-09-01T21:43:01.779Z,76.06
2022-09-01T21:45:28.904Z,76.75
2022-09-01T21:47:55.743Z,75.64
2022-09-01T21:50:25.301Z,76.08
2022-09-01T21:52:52.224Z,75.92
2022-09-01T21:55:22.862Z,76.48
2022-09-01T21:57:51.175Z,75.40
2022-09-01T22:00:21.922Z,76.75
2022-09-01T22:02:49.235Z,76.09
2022-09-01T22:05:16.132Z,76.21
2022-09-01T22:07:45.489Z,76.22
2022-09-01T22:10:15.696Z,76.83
2022-09-01T22:12:45.023Z,76.93
2022-09-01T22:15:13.773Z,77.46
2022-09-01T22:17:40.898Z,77.42
2022-09-01T22:20:09.256Z,76.98
2022-09-01T22:22:36.236Z,77.79
2022-09-01T22:25:08.399Z,77.33
2022-09-01T22:27:35.428Z,77.57
2022-09-01T22:30:04.333Z,78.36
2022-09-01T22:32:33.158Z,77.76
2022-09-01T22:35:02.603Z,78.28
2022-09-01T22:37:29.544Z,77.51
2022-09-01T22:39:56.310Z,78.94
2022-09-01T22:42:23.110Z,77.82
2022-09-01T22:44:49.972Z,77.79
2022-09-01T22:47:16.863Z,77.81
2022-09-01T22:49:43.868Z,77.85
2022-09-01T22:52:10.749Z,77.42
2022-09-01T22:54:41.096Z,78.32
2022-09-01T22:57:08.034Z,77.60
2022-09-01T22:59:35.001Z,78.18
2022-09-01T23:02:02.029Z,78.38
2022-09-01T23:04:30.992Z,78.56
2022-09-01T23:06:58.184Z,77.90
2022-09-01T23:09:25.062Z,78.59
2022-09-01T23:11:51.933Z,77.88
2022-09-01T23:14:18.849Z,78.06
2022-09-01T23:16:47.133Z,79.03
2022-09-01T23:19:19.613Z,79.00
2022-09-01T23:21:47.890Z,79.91
2022-09-01T23:24:15.283Z,79.70
2022-09-01T23:26:42.226Z,79.09
2022-09-01T23:29:09.611Z,79.46
2022-09-01T23:31:38.265Z,79.55
2022-09-01T23:34:07.216Z,78.86
2022-09-01T23:36:35.104Z,78.90
2022-09-01T23:39:04.447Z,78.28
2022-09-01T23:41:33.971Z,78.77
2022-09-01T23:44:04.077Z,78.56
2022-09-01T23:46:34.387Z,78.28
2022-09-01T23:49:02.068Z,79.38
2022-09-01T23:51:30.020Z,79.91
2022-09-01T23:53:56.994Z,78.63
2022-09-01T23:56:26.048Z,78.72
2022-09-01T23:58:53.020Z,79.76
